• Join FlightAware (Why Join?)
  • Login
  • US Flag 
07:02PM EDT


 

Airport Tracker/Info


-or-


 

Live Flight TrackerFlight Track Log ✈ ASQ6041 ✈ 14-Jul-2013 ✈ KDEN - KGUC

Flight Track Log - Related Links

Times and Time Zones

All times are in EDT time to prevent confusion due to time zone crossing. See the ASQ6041 flight status page for this flight to view local times or setup timezone preferences in your user account.

Time Position Orientation Groundspeed Altitude Reporting Facility
EDT Latitude Longitude Course Direction KTS MPH feet Rate Location/Type
01:14PM 39.9000 -104.7167 251° West 171 197 7,300  Level Denver TRACON
01:15PM 39.8667 -104.7833 237° Southwest 243 280 9,100 1,560 Climbing Denver TRACON
01:16PM 39.7548 -104.9840 249° West  Level FlightAware Approximate
01:16PM 39.8453 -104.8544 249° West 267 307 10,100  Level Denver Center
01:17PM 39.7206 -105.0883 247° West  Level FlightAware Approximate
01:17PM 39.8067 -104.9564 244° Southwest 311 358 12,000  Level Denver Center
01:18PM 39.6859 -105.1924 247° West  Level FlightAware Approximate
01:18PM 39.7631 -105.0711 244° Southwest 328 377 14,200  Level Denver Center
01:19PM 39.6436 -105.2908 251° West  Level FlightAware Approximate
01:19PM 39.7208 -105.1817 244° Southwest 342 394 16,100  Level Denver Center
01:20PM 39.6794 -105.2897 244° Southwest 338 389 17,800 1,800 Climbing Denver Center
01:21PM 39.6339 -105.4078 243° Southwest 339 390 19,900 1,920 Climbing Denver Center
01:22PM 39.5917 -105.5142 243° Southwest 333 383 21,800 960 Climbing Denver Center
01:23PM 39.5453 -105.6369 244° Southwest 359 413 22,000 60 Climbing Denver Center
01:24PM 39.5089 -105.7692 250° West 389 448 22,000  Level Denver Center
01:25PM 39.4792 -105.8878 252° West 372 428 22,000  Level Denver Center
01:26PM 39.4344 -106.0450 250° West 385 443 22,000  Level Denver Center
01:27PM 39.3894 -106.1806 247° West 414 476 22,000  Level Denver Center
01:28PM 39.2986 -106.2742 219° Southwest 434 499 22,000  Level Denver Center
01:29PM 39.1908 -106.3719 215° Southwest 426 490 22,000 -480 Level Denver Center
01:30PM 39.1000 -106.4547 215° Southwest 420 483 21,000 -1,200 Descending Denver Center
01:31PM 39.0142 -106.5331 215° Southwest 409 471 19,500 -1,500 Descending Denver Center
01:32PM 38.9139 -106.6236 215° Southwest 375 432 17,900 -1,440 Descending Denver Center
01:33PM 38.8356 -106.6961 216° Southwest 356 410 16,600 -960 Descending Denver Center
01:34PM 38.7644 -106.7592 215° Southwest 323 372 16,000 -600 Descending Denver Center